Time,TemperatureF,DewpointF,PressureIn,WindDirection,WindDirectionDegrees,WindSpeedMPH,WindSpeedGustMPH,Humidity,HourlyPrecipIn,Conditions,Clouds,dailyrainin,SoftwareType,DateUTC
2013-08-18 00:00:00,77.0,74.8,30.06,SSE,161,0.0,1.0,93,0.00,,,0.00,Weather View 32 v70,2013-08-18 04:00:00,
2013-08-18 00:01:00,77.0,74.8,30.06,SSE,161,0.0,1.0,93,0.00,,,0.00,Weather View 32 v70,2013-08-18 04:01:00,
2013-08-18 00:02:00,77.0,74.5,30.06,SSE,161,0.0,1.0,92,0.00,,,0.00,Weather View 32 v70,2013-08-18 04:02:00,
2013-08-18 00:07:00,77.1,74.9,30.06,SSE,161,0.0,1.0,93,0.00,,,0.00,Weather View 32 v70,2013-08-18 04:07:00,
2013-08-18 00:12:00,77.0,74.8,30.06,SSE,160,0.0,1.0,93,0.00,,,0.00,Weather View 32 v70,2013-08-18 04:12:00,
2013-08-18 00:17:00,77.0,74.8,30.06,SSE,160,0.0,1.0,93,0.00,,,0.00,Weather View 32 v70,2013-08-18 04:17:00,
2013-08-18 00:22:00,77.0,74.8,30.06,SSE,161,0.0,1.0,93,0.00,,,0.00,Weather View 32 v70,2013-08-18 04:22:00,
2013-08-18 00:27:00,77.0,74.8,30.05,SSE,160,0.0,1.0,93,0.00,,,0.00,Weather View 32 v70,2013-08-18 04:27:00,
2013-08-18 00:30:00,77.0,74.8,30.05,SSE,160,0.0,1.0,93,0.00,,,0.00,Weather View 32 v70,2013-08-18 04:30:00,
2013-08-18 00:32:00,77.0,74.5,30.05,SSE,160,0.0,1.0,92,0.00,,,0.00,Weather View 32 v70,2013-08-18 04:32:00,
2013-08-18 00:37:00,76.9,74.4,30.05,SSE,160,0.0,2.0,92,0.00,,,0.00,Weather View 32 v70,2013-08-18 04:37:00,
2013-08-18 00:42:00,76.9,74.4,30.05,SSE,160,0.0,2.0,92,0.00,,,0.00,Weather View 32 v70,2013-08-18 04:42:00,
2013-08-18 00:47:00,76.9,74.7,30.05,SSE,160,0.0,2.0,93,0.00,,,0.00,Weather View 32 v70,2013-08-18 04:47:00,
2013-08-18 00:52:00,76.9,74.7,30.05,SSE,160,0.0,2.0,93,0.00,,,0.00,Weather View 32 v70,2013-08-18 04:52:00,
2013-08-18 00:57:00,76.9,74.7,30.05,SSE,160,0.0,2.0,93,0.00,,,0.00,Weather View 32 v70,2013-08-18 04:57:00,
2013-08-18 01:02:00,76.8,74.6,30.05,SSE,160,1.0,2.0,93,0.00,,,0.00,Weather View 32 v70,2013-08-18 05:02:00,
2013-08-18 01:07:00,76.8,74.6,30.05,SSE,160,0.0,2.0,93,0.00,,,0.00,Weather View 32 v70,2013-08-18 05:07:00,
2013-08-18 01:12:00,76.7,74.5,30.05,SSE,159,0.0,2.0,93,0.00,,,0.00,Weather View 32 v70,2013-08-18 05:12:00,
2013-08-18 01:17:00,76.7,74.5,30.05,SSE,159,0.0,2.0,93,0.00,,,0.00,Weather View 32 v70,2013-08-18 05:17:00,
2013-08-18 01:22:00,76.7,74.5,30.04,SSE,158,0.0,4.0,93,0.00,,,0.00,Weather View 32 v70,2013-08-18 05:22:00,
2013-08-18 01:27:00,76.7,74.5,30.05,SSE,157,0.0,4.0,93,0.00,,,0.00,Weather View 32 v70,2013-08-18 05:27:00,
2013-08-18 01:30:00,76.7,74.5,30.05,SSE,157,0.0,4.0,93,0.00,,,0.00,Weather View 32 v70,2013-08-18 05:30:00,
2013-08-18 01:32:00,76.7,74.5,30.04,SSE,157,0.0,4.0,93,0.00,,,0.00,Weather View 32 v70,2013-08-18 05:32:00,
2013-08-18 01:37:00,76.7,74.5,30.05,SSE,158,0.0,4.0,93,0.00,,,0.00,Weather View 32 v70,2013-08-18 05:37:00,
2013-08-18 01:42:00,76.7,74.2,30.04,SSE,158,0.0,4.0,92,0.00,,,0.00,Weather View 32 v70,2013-08-18 05:42:00,
2013-08-18 01:47:00,76.8,74.6,30.04,SSE,158,0.0,4.0,93,0.00,,,0.00,Weather View 32 v70,2013-08-18 05:47:00,
2013-08-18 01:52:00,76.8,74.3,30.04,SSE,158,0.0,4.0,92,0.00,,,0.00,Weather View 32 v70,2013-08-18 05:52:00,
2013-08-18 01:57:00,76.8,74.3,30.04,SSE,158,0.0,4.0,92,0.00,,,0.00,Weather View 32 v70,2013-08-18 05:57:00,
2013-08-18 02:02:00,76.8,74.6,30.04,SSE,157,0.0,4.0,93,0.00,,,0.00,Weather View 32 v70,2013-08-18 06:02:00,
2013-08-18 02:07:00,76.8,74.6,30.04,SSE,158,0.0,4.0,93,0.00,,,0.00,Weather View 32 v70,2013-08-18 06:07:00,
2013-08-18 02:12:00,76.7,74.5,30.04,SSE,158,0.0,4.0,93,0.00,,,0.00,Weather View 32 v70,2013-08-18 06:12:00,
2013-08-18 02:17:00,76.7,74.5,30.03,SSE,158,0.0,4.0,93,0.00,,,0.00,Weather View 32 v70,2013-08-18 06:17:00,
2013-08-18 02:22:00,76.6,74.4,30.03,SSE,158,0.0,4.0,93,0.00,,,0.00,Weather View 32 v70,2013-08-18 06:22:00,
2013-08-18 02:27:00,76.6,74.4,30.04,SSE,158,0.0,4.0,93,0.00,,,0.00,Weather View 32 v70,2013-08-18 06:27:00,
2013-08-18 02:30:00,76.6,74.4,30.03,SSE,157,1.0,4.0,93,0.00,,,0.00,Weather View 32 v70,2013-08-18 06:30:00,
2013-08-18 02:32:00,76.6,74.4,30.04,SSE,157,0.0,4.0,93,0.00,,,0.00,Weather View 32 v70,2013-08-18 06:32:00,
2013-08-18 02:37:00,76.6,74.4,30.03,SSE,158,0.0,3.0,93,0.00,,,0.00,Weather View 32 v70,2013-08-18 06:37:00,
2013-08-18 02:42:00,76.6,74.7,30.03,SSE,158,0.0,3.0,94,0.00,,,0.00,Weather View 32 v70,2013-08-18 06:42:00,
2013-08-18 02:47:00,76.6,74.7,30.03,SSE,157,0.0,3.0,94,0.00,,,0.00,Weather View 32 v70,2013-08-18 06:47:00,
2013-08-18 02:52:00,76.6,74.7,30.03,SSE,158,0.0,3.0,94,0.00,,,0.00,Weather View 32 v70,2013-08-18 06:52:00,
2013-08-18 02:57:00,76.6,74.7,30.03,SSE,158,0.0,3.0,94,0.00,,,0.00,Weather View 32 v70,2013-08-18 06:57:00,
2013-08-18 03:02:00,76.6,74.7,30.03,SSE,158,0.0,1.0,94,0.00,,,0.00,Weather View 32 v70,2013-08-18 07:02:00,
2013-08-18 03:07:00,76.7,74.8,30.02,SSE,157,0.0,3.0,94,0.00,,,0.00,Weather View 32 v70,2013-08-18 07:07:00,
2013-08-18 03:12:00,76.7,74.8,30.02,SSE,155,2.0,3.0,94,0.00,,,0.00,Weather View 32 v70,2013-08-18 07:12:00,
2013-08-18 03:17:00,76.8,74.9,30.02,SSE,155,3.0,3.0,94,0.00,,,0.00,Weather View 32 v70,2013-08-18 07:17:00,
2013-08-18 03:22:00,76.8,74.6,30.02,ESE,105,2.0,7.0,93,0.00,,,0.00,Weather View 32 v70,2013-08-18 07:22:00,
2013-08-18 03:27:00,76.8,74.6,30.02,ESE,102,0.0,7.0,93,0.00,,,0.00,Weather View 32 v70,2013-08-18 07:27:00,
2013-08-18 03:30:00,76.9,74.7,30.02,ESE,103,0.0,7.0,93,0.00,,,0.00,Weather View 32 v70,2013-08-18 07:30:00,
2013-08-18 03:32:00,76.9,74.7,30.02,ESE,107,0.0,7.0,93,0.00,,,0.00,Weather View 32 v70,2013-08-18 07:32:00,
2013-08-18 03:37:00,77.0,74.8,30.02,ESE,106,0.0,7.0,93,0.00,,,0.00,Weather View 32 v70,2013-08-18 07:37:00,
2013-08-18 03:42:00,77.1,74.9,30.01,ESE,104,0.0,7.0,93,0.00,,,0.00,Weather View 32 v70,2013-08-18 07:42:00,
2013-08-18 03:47:00,77.2,75.0,30.02,ESE,107,1.0,7.0,93,0.00,,,0.00,Weather View 32 v70,2013-08-18 07:47:00,
2013-08-18 03:52:00,77.3,75.1,30.02,ESE,109,0.0,7.0,93,0.00,,,0.00,Weather View 32 v70,2013-08-18 07:52:00,
2013-08-18 03:57:00,77.3,75.1,30.02,ESE,107,0.0,7.0,93,0.00,,,0.00,Weather View 32 v70,2013-08-18 07:57:00,
2013-08-18 04:02:00,77.3,75.1,30.01,ESE,107,0.0,7.0,93,0.00,,,0.00,Weather View 32 v70,2013-08-18 08:02:00,
2013-08-18 04:07:00,77.2,75.0,30.01,ESE,105,0.0,7.0,93,0.00,,,0.00,Weather View 32 v70,2013-08-18 08:07:00,
2013-08-18 04:12:00,77.3,75.1,30.01,ESE,105,0.0,7.0,93,0.00,,,0.00,Weather View 32 v70,2013-08-18 08:12:00,
2013-08-18 04:17:00,77.2,75.0,30.01,East,101,2.0,7.0,93,0.00,,,0.00,Weather View 32 v70,2013-08-18 08:17:00,
2013-08-18 04:22:00,77.2,75.0,30.01,ESE,114,2.0,6.0,93,0.00,,,0.00,Weather View 32 v70,2013-08-18 08:22:00,
2013-08-18 04:27:00,77.2,75.0,30.01,ESE,112,1.0,6.0,93,0.00,,,0.00,Weather View 32 v70,2013-08-18 08:27:00,
2013-08-18 04:30:00,77.2,75.0,30.01,ESE,112,2.0,6.0,93,0.00,,,0.00,Weather View 32 v70,2013-08-18 08:30:00,
2013-08-18 04:32:00,77.2,75.0,30.00,SE,128,2.0,6.0,93,0.00,,,0.00,Weather View 32 v70,2013-08-18 08:32:00,
2013-08-18 04:37:00,77.2,75.0,30.00,SE,132,0.0,6.0,93,0.00,,,0.00,Weather View 32 v70,2013-08-18 08:37:00,
2013-08-18 04:42:00,77.2,75.0,30.00,SE,132,2.0,6.0,93,0.00,,,0.00,Weather View 32 v70,2013-08-18 08:42:00,
2013-08-18 04:47:00,77.2,75.0,30.00,SE,132,0.0,6.0,93,0.00,,,0.00,Weather View 32 v70,2013-08-18 08:47:00,
2013-08-18 04:52:00,77.2,75.0,30.00,SE,132,0.0,6.0,93,0.00,,,0.00,Weather View 32 v70,2013-08-18 08:52:00,
2013-08-18 04:57:00,77.2,75.0,30.00,SE,130,1.0,6.0,93,0.00,,,0.00,Weather View 32 v70,2013-08-18 08:57:00,
2013-08-18 05:02:00,77.2,75.0,30.00,SE,130,0.0,6.0,93,0.00,,,0.00,Weather View 32 v70,2013-08-18 09:02:00,
2013-08-18 05:07:00,77.2,75.3,30.00,SE,126,2.0,6.0,94,0.00,,,0.00,Weather View 32 v70,2013-08-18 09:07:00,
2013-08-18 05:12:00,77.1,75.2,30.00,SE,128,0.0,6.0,94,0.00,,,0.00,Weather View 32 v70,2013-08-18 09:12:00,
2013-08-18 05:17:00,77.2,75.3,30.00,SE,128,0.0,6.0,94,0.00,,,0.00,Weather View 32 v70,2013-08-18 09:17:00,
2013-08-18 05:22:00,77.2,75.3,30.00,SE,128,0.0,6.0,94,0.00,,,0.00,Weather View 32 v70,2013-08-18 09:22:00,
2013-08-18 05:27:00,77.1,75.2,30.00,SE,128,1.0,6.0,94,0.00,,,0.00,Weather View 32 v70,2013-08-18 09:27:00,
2013-08-18 05:30:00,77.1,75.2,30.01,SE,128,0.0,6.0,94,0.00,,,0.00,Weather View 32 v70,2013-08-18 09:30:00,
2013-08-18 05:32:00,77.1,75.2,30.00,SE,128,0.0,6.0,94,0.00,,,0.00,Weather View 32 v70,2013-08-18 09:32:00,
2013-08-18 05:37:00,77.1,75.2,30.00,SE,128,0.0,6.0,94,0.00,,,0.00,Weather View 32 v70,2013-08-18 09:37:00,
2013-08-18 05:42:00,77.0,75.1,30.00,SE,126,0.0,6.0,94,0.00,,,0.00,Weather View 32 v70,2013-08-18 09:42:00,
2013-08-18 05:47:00,76.9,75.0,30.01,SE,125,0.0,6.0,94,0.00,,,0.00,Weather View 32 v70,2013-08-18 09:47:00,
2013-08-18 05:52:00,76.9,75.0,30.01,SE,126,0.0,6.0,94,0.00,,,0.00,Weather View 32 v70,2013-08-18 09:52:00,
2013-08-18 05:57:00,76.9,75.0,30.02,SE,126,1.0,6.0,94,0.07,,,0.00,Weather View 32 v70,2013-08-18 09:57:00,
2013-08-18 06:02:00,76.9,75.0,30.02,SE,127,0.0,6.0,94,0.00,,,0.00,Weather View 32 v70,2013-08-18 10:02:00,
2013-08-18 06:07:00,76.9,75.0,30.01,SE,125,0.0,6.0,94,0.00,,,0.00,Weather View 32 v70,2013-08-18 10:07:00,
2013-08-18 06:12:00,76.9,75.0,30.02,SE,125,1.0,6.0,94,0.00,,,0.00,Weather View 32 v70,2013-08-18 10:12:00,
2013-08-18 06:17:00,76.9,75.0,30.02,ESE,123,0.0,6.0,94,0.00,,,0.00,Weather View 32 v70,2013-08-18 10:17:00,
2013-08-18 06:22:00,76.9,75.0,30.02,ESE,123,0.0,5.0,94,0.00,,,0.00,Weather View 32 v70,2013-08-18 10:22:00,
2013-08-18 06:28:00,76.9,75.0,30.02,ESE,122,1.0,5.0,94,0.00,,,0.00,Weather View 32 v70,2013-08-18 10:28:00,
2013-08-18 06:30:00,76.9,75.0,30.02,ESE,121,4.0,5.0,94,0.00,,,0.00,Weather View 32 v70,2013-08-18 10:30:00,
2013-08-18 06:33:00,76.9,75.0,30.02,ESE,121,0.0,5.0,94,0.00,,,0.00,Weather View 32 v70,2013-08-18 10:33:00,
2013-08-18 06:38:00,76.9,75.0,30.02,ESE,115,0.0,5.0,94,0.00,,,0.00,Weather View 32 v70,2013-08-18 10:38:00,
2013-08-18 06:43:00,76.9,75.0,30.02,ESE,115,0.0,5.0,94,0.00,,,0.00,Weather View 32 v70,2013-08-18 10:43:00,
2013-08-18 06:48:00,76.8,74.9,30.02,ESE,114,0.0,5.0,94,0.00,,,0.00,Weather View 32 v70,2013-08-18 10:48:00,
2013-08-18 06:53:00,76.8,74.9,30.02,ESE,110,3.0,5.0,94,0.00,,,0.00,Weather View 32 v70,2013-08-18 10:53:00,
2013-08-18 06:58:00,76.8,74.9,30.02,ESE,109,0.0,5.0,94,0.00,,,0.00,Weather View 32 v70,2013-08-18 10:58:00,
2013-08-18 07:03:00,76.7,74.8,30.02,ESE,109,1.0,5.0,94,0.00,,,0.00,Weather View 32 v70,2013-08-18 11:03:00,
2013-08-18 07:08:00,76.7,74.8,30.02,ESE,109,0.0,5.0,94,0.00,,,0.00,Weather View 32 v70,2013-08-18 11:08:00,
2013-08-18 07:13:00,76.6,75.1,30.02,ESE,108,0.0,5.0,95,0.00,,,0.00,Weather View 32 v70,2013-08-18 11:13:00,
2013-08-18 07:18:00,76.6,75.1,30.02,ESE,112,0.0,5.0,95,0.00,,,0.00,Weather View 32 v70,2013-08-18 11:18:00,
2013-08-18 07:23:00,76.7,75.2,30.02,ESE,109,0.0,5.0,95,0.00,,,0.00,Weather View 32 v70,2013-08-18 11:23:00,
2013-08-18 07:28:00,76.7,75.2,30.02,ESE,109,0.0,5.0,95,0.00,,,0.00,Weather View 32 v70,2013-08-18 11:28:00,
2013-08-18 07:30:00,76.7,75.2,30.02,ESE,109,0.0,5.0,95,0.00,,,0.00,Weather View 32 v70,2013-08-18 11:30:00,
2013-08-18 07:33:00,76.7,75.2,30.02,ESE,107,0.0,5.0,95,0.00,,,0.00,Weather View 32 v70,2013-08-18 11:33:00,
2013-08-18 07:38:00,76.9,75.3,30.02,ESE,113,0.0,5.0,95,0.00,,,0.00,Weather View 32 v70,2013-08-18 11:38:00,
2013-08-18 07:43:00,77.0,75.4,30.02,ESE,104,0.0,5.0,95,0.00,,,0.00,Weather View 32 v70,2013-08-18 11:43:00,
2013-08-18 07:48:00,77.0,75.1,30.02,ESE,122,5.0,9.0,94,0.00,,,0.00,Weather View 32 v70,2013-08-18 11:48:00,
2013-08-18 07:53:00,77.2,75.6,30.02,ESE,111,5.0,9.0,95,0.00,,,0.00,Weather View 32 v70,2013-08-18 11:53:00,
2013-08-18 07:58:00,77.3,75.4,30.03,East,101,0.0,9.0,94,0.00,,,0.00,Weather View 32 v70,2013-08-18 11:58:00,
2013-08-18 08:03:00,77.6,76.0,30.03,East,95,0.0,9.0,95,0.00,,,0.00,Weather View 32 v70,2013-08-18 12:03:00,
2013-08-18 08:08:00,78.0,76.1,30.03,ESE,106,0.0,9.0,94,0.00,,,0.00,Weather View 32 v70,2013-08-18 12:08:00,
2013-08-18 08:13:00,78.4,76.5,30.03,ESE,121,0.0,9.0,94,0.00,,,0.00,Weather View 32 v70,2013-08-18 12:13:00,
2013-08-18 08:18:00,78.7,76.8,30.03,SE,127,3.0,9.0,94,0.00,,,0.00,Weather View 32 v70,2013-08-18 12:18:00,
2013-08-18 08:23:00,79.1,77.2,30.03,SE,138,4.0,9.0,94,0.00,,,0.00,Weather View 32 v70,2013-08-18 12:23:00,
2013-08-18 08:28:00,79.4,77.2,30.03,SE,138,3.0,9.0,93,0.00,,,0.00,Weather View 32 v70,2013-08-18 12:28:00,
2013-08-18 08:30:00,79.4,77.2,30.03,ESE,117,1.0,9.0,93,0.00,,,0.00,Weather View 32 v70,2013-08-18 12:30:00,
2013-08-18 08:33:00,79.8,77.6,30.03,SE,139,3.0,9.0,93,0.00,,,0.00,Weather View 32 v70,2013-08-18 12:33:00,
2013-08-18 08:38:00,80.2,77.7,30.03,SE,137,0.0,9.0,92,0.00,,,0.00,Weather View 32 v70,2013-08-18 12:38:00,
2013-08-18 08:43:00,80.7,77.8,30.04,East,80,2.0,9.0,91,0.00,,,0.00,Weather View 32 v70,2013-08-18 12:43:00,
2013-08-18 08:48:00,81.1,77.9,30.03,SE,130,4.0,9.0,90,0.00,,,0.00,Weather View 32 v70,2013-08-18 12:48:00,
2013-08-18 08:53:00,81.4,78.2,30.03,SE,126,2.0,9.0,90,0.00,,,0.00,Weather View 32 v70,2013-08-18 12:53:00,
2013-08-18 08:58:00,81.8,78.2,30.04,SE,141,2.0,10.0,89,0.00,,,0.00,Weather View 32 v70,2013-08-18 12:58:00,
2013-08-18 09:03:00,82.2,78.3,30.04,ESE,123,0.0,10.0,88,0.00,,,0.00,Weather View 32 v70,2013-08-18 13:03:00,
2013-08-18 09:08:00,82.6,78.7,30.04,ESE,121,7.0,10.0,88,0.00,,,0.00,Weather View 32 v70,2013-08-18 13:08:00,
2013-08-18 09:13:00,83.0,78.7,30.04,ESE,117,2.0,11.0,87,0.00,,,0.00,Weather View 32 v70,2013-08-18 13:13:00,
2013-08-18 09:18:00,83.2,78.6,30.05,SE,125,3.0,11.0,86,0.00,,,0.00,Weather View 32 v70,2013-08-18 13:18:00,
2013-08-18 09:23:00,83.6,78.6,30.04,SE,134,2.0,11.0,85,0.00,,,0.00,Weather View 32 v70,2013-08-18 13:23:00,
2013-08-18 09:28:00,83.9,78.9,30.04,ESE,113,4.0,11.0,85,0.00,,,0.00,Weather View 32 v70,2013-08-18 13:28:00,
2013-08-18 09:30:00,84.0,79.0,30.04,ESE,117,4.0,11.0,85,0.00,,,0.00,Weather View 32 v70,2013-08-18 13:30:00,
2013-08-18 09:33:00,84.2,78.8,30.04,SE,127,2.0,11.0,84,0.00,,,0.00,Weather View 32 v70,2013-08-18 13:33:00,
2013-08-18 09:38:00,84.2,78.4,30.04,ESE,110,9.0,13.0,83,0.00,,,0.00,Weather View 32 v70,2013-08-18 13:38:00,
2013-08-18 09:43:00,83.9,78.5,30.05,SE,135,3.0,13.0,84,0.00,,,0.00,Weather View 32 v70,2013-08-18 13:43:00,
2013-08-18 09:48:00,83.9,78.5,30.05,SE,128,3.0,13.0,84,0.00,,,0.00,Weather View 32 v70,2013-08-18 13:48:00,
2013-08-18 09:53:00,84.4,79.0,30.05,ESE,119,5.0,13.0,84,0.00,,,0.00,Weather View 32 v70,2013-08-18 13:53:00,
2013-08-18 09:58:00,84.9,79.1,30.05,SE,130,6.0,13.0,83,0.00,,,0.00,Weather View 32 v70,2013-08-18 13:58:00,
2013-08-18 10:03:00,85.2,78.7,30.05,SE,136,0.0,13.0,81,0.00,,,0.00,Weather View 32 v70,2013-08-18 14:03:00,
2013-08-18 10:08:00,85.6,78.7,30.05,ESE,122,8.0,13.0,80,0.00,,,0.00,Weather View 32 v70,2013-08-18 14:08:00,
2013-08-18 10:13:00,86.0,78.3,30.05,ESE,106,5.0,13.0,78,0.00,,,0.00,Weather View 32 v70,2013-08-18 14:13:00,
2013-08-18 10:18:00,86.1,78.4,30.05,SE,124,3.0,13.0,78,0.00,,,0.00,Weather View 32 v70,2013-08-18 14:18:00,
2013-08-18 10:23:00,86.1,78.4,30.05,SE,125,0.0,13.0,78,0.00,,,0.00,Weather View 32 v70,2013-08-18 14:23:00,
2013-08-18 10:28:00,86.1,78.4,30.05,SE,130,2.0,13.0,78,0.00,,,0.00,Weather View 32 v70,2013-08-18 14:28:00,
2013-08-18 10:30:00,86.2,78.5,30.05,SE,131,0.0,13.0,78,0.00,,,0.00,Weather View 32 v70,2013-08-18 14:30:00,
2013-08-18 10:33:00,86.2,78.1,30.05,SE,130,9.0,13.0,77,0.00,,,0.00,Weather View 32 v70,2013-08-18 14:33:00,
2013-08-18 10:38:00,86.2,78.1,30.05,SE,128,0.0,13.0,77,0.00,,,0.00,Weather View 32 v70,2013-08-18 14:38:00,
2013-08-18 10:43:00,86.8,78.3,30.05,SE,128,12.0,13.0,76,0.00,,,0.00,Weather View 32 v70,2013-08-18 14:43:00,
2013-08-18 10:48:00,87.1,78.2,30.05,SE,142,2.0,13.0,75,0.00,,,0.00,Weather View 32 v70,2013-08-18 14:48:00,
2013-08-18 10:53:00,87.6,77.8,30.05,SE,130,7.0,13.0,73,0.00,,,0.00,Weather View 32 v70,2013-08-18 14:53:00,
2013-08-18 10:58:00,87.4,77.6,30.05,SE,130,7.0,13.0,73,0.00,,,0.00,Weather View 32 v70,2013-08-18 14:58:00,
2013-08-18 11:03:00,87.2,77.0,30.05,SE,125,7.0,14.0,72,0.00,,,0.00,Weather View 32 v70,2013-08-18 15:03:00,
2013-08-18 11:08:00,87.1,77.8,30.05,SE,126,6.0,14.0,74,0.00,,,0.00,Weather View 32 v70,2013-08-18 15:08:00,
2013-08-18 11:13:00,87.5,77.3,30.05,SE,134,3.0,14.0,72,0.00,,,0.00,Weather View 32 v70,2013-08-18 15:13:00,
2013-08-18 11:18:00,88.0,78.2,30.05,SE,132,3.0,14.0,73,0.00,,,0.00,Weather View 32 v70,2013-08-18 15:18:00,
2013-08-18 11:23:00,87.6,77.4,30.04,East,81,6.0,14.0,72,0.00,,,0.00,Weather View 32 v70,2013-08-18 15:23:00,
2013-08-18 11:28:00,88.1,77.5,30.05,East,93,6.0,14.0,71,0.00,,,0.00,Weather View 32 v70,2013-08-18 15:28:00,
2013-08-18 11:30:00,88.1,77.5,30.05,SSE,157,3.0,14.0,71,0.00,,,0.00,Weather View 32 v70,2013-08-18 15:30:00,
2013-08-18 11:33:00,88.8,77.7,30.05,ESE,119,4.0,14.0,70,0.00,,,0.00,Weather View 32 v70,2013-08-18 15:33:00,
2013-08-18 11:38:00,89.1,77.5,30.05,ESE,102,3.0,14.0,69,0.00,,,0.00,Weather View 32 v70,2013-08-18 15:38:00,
2013-08-18 11:44:00,88.8,77.3,30.05,SE,130,5.0,14.0,69,0.00,,,0.00,Weather View 32 v70,2013-08-18 15:44:00,
2013-08-18 11:49:00,88.5,77.0,30.05,SE,124,9.0,14.0,69,0.00,,,0.00,Weather View 32 v70,2013-08-18 15:49:00,
2013-08-18 11:54:00,88.7,77.6,30.05,SE,136,4.0,14.0,70,0.00,,,0.00,Weather View 32 v70,2013-08-18 15:54:00,
2013-08-18 11:59:00,88.8,76.4,30.05,SE,138,5.0,14.0,67,0.00,,,0.00,Weather View 32 v70,2013-08-18 15:59:00,
2013-08-18 12:04:00,88.9,77.4,30.05,SE,125,3.0,14.0,69,0.00,,,0.00,Weather View 32 v70,2013-08-18 16:04:00,
2013-08-18 12:09:00,89.7,77.7,30.05,SE,126,5.0,14.0,68,0.00,,,0.00,Weather View 32 v70,2013-08-18 16:09:00,
2013-08-18 12:14:00,90.5,77.5,30.05,ENE,78,2.0,14.0,66,0.00,,,0.00,Weather View 32 v70,2013-08-18 16:14:00,
2013-08-18 12:19:00,91.0,77.1,30.05,ESE,123,2.0,14.0,64,0.00,,,0.00,Weather View 32 v70,2013-08-18 16:19:00,
2013-08-18 12:24:00,91.3,76.9,30.04,SE,126,1.0,13.0,63,0.00,,,0.00,Weather View 32 v70,2013-08-18 16:24:00,
2013-08-18 12:29:00,91.1,76.2,30.05,ESE,114,3.0,13.0,62,0.00,,,0.00,Weather View 32 v70,2013-08-18 16:29:00,
2013-08-18 12:30:00,91.1,76.7,30.05,ESE,118,3.0,13.0,63,0.00,,,0.00,Weather View 32 v70,2013-08-18 16:30:00,
2013-08-18 12:34:00,90.7,76.8,30.04,SE,128,0.0,13.0,64,0.00,,,0.00,Weather View 32 v70,2013-08-18 16:34:00,
2013-08-18 12:39:00,90.8,76.4,30.04,SE,129,0.0,13.0,63,0.00,,,0.00,Weather View 32 v70,2013-08-18 16:39:00,
2013-08-18 12:44:00,91.3,77.3,30.04,SSE,167,1.0,13.0,64,0.00,,,0.00,Weather View 32 v70,2013-08-18 16:44:00,
2013-08-18 12:49:00,91.9,76.9,30.04,SE,130,11.0,13.0,62,0.00,,,0.00,Weather View 32 v70,2013-08-18 16:49:00,
2013-08-18 12:54:00,91.6,76.2,30.04,East,82,5.0,16.0,61,0.00,,,0.00,Weather View 32 v70,2013-08-18 16:54:00,
2013-08-18 12:59:00,91.9,76.5,30.04,SE,129,6.0,16.0,61,0.00,,,0.00,Weather View 32 v70,2013-08-18 16:59:00,
2013-08-18 13:04:00,91.8,75.4,30.04,SE,132,2.0,16.0,59,0.00,,,0.00,Weather View 32 v70,2013-08-18 17:04:00,
2013-08-18 13:09:00,91.8,76.4,30.03,SE,132,2.0,16.0,61,0.00,,,0.00,Weather View 32 v70,2013-08-18 17:09:00,
2013-08-18 13:14:00,92.0,76.6,30.03,SE,133,2.0,16.0,61,0.00,,,0.00,Weather View 32 v70,2013-08-18 17:14:00,
2013-08-18 13:19:00,91.5,75.6,30.03,ESE,109,10.0,16.0,60,0.00,,,0.00,Weather View 32 v70,2013-08-18 17:19:00,
2013-08-18 13:24:00,91.5,76.1,30.03,ESE,103,3.0,16.0,61,0.00,,,0.00,Weather View 32 v70,2013-08-18 17:24:00,
2013-08-18 13:29:00,91.9,76.0,30.03,SE,128,0.0,16.0,60,0.00,,,0.00,Weather View 32 v70,2013-08-18 17:29:00,
2013-08-18 13:30:00,91.8,75.4,30.03,SE,128,0.0,16.0,59,0.00,,,0.00,Weather View 32 v70,2013-08-18 17:30:00,
2013-08-18 13:34:00,92.4,76.9,30.02,ESE,121,3.0,16.0,61,0.00,,,0.00,Weather View 32 v70,2013-08-18 17:34:00,
2013-08-18 13:39:00,92.2,76.2,30.02,SSE,152,6.0,16.0,60,0.00,,,0.00,Weather View 32 v70,2013-08-18 17:39:00,
2013-08-18 13:44:00,92.3,75.8,30.02,SE,135,6.0,16.0,59,0.00,,,0.00,Weather View 32 v70,2013-08-18 17:44:00,
2013-08-18 13:49:00,93.1,76.6,30.02,SE,130,0.0,16.0,59,0.00,,,0.00,Weather View 32 v70,2013-08-18 17:49:00,
2013-08-18 13:54:00,93.8,76.7,30.02,SE,132,5.0,13.0,58,0.00,,,0.00,Weather View 32 v70,2013-08-18 17:54:00,
2013-08-18 13:59:00,93.3,75.7,30.02,SE,138,4.0,13.0,57,0.00,,,0.00,Weather View 32 v70,2013-08-18 17:59:00,
2013-08-18 14:04:00,92.3,75.8,30.01,SE,128,2.0,13.0,59,0.00,,,0.00,Weather View 32 v70,2013-08-18 18:04:00,
2013-08-18 14:09:00,91.9,74.9,30.01,SE,135,5.0,13.0,58,0.00,,,0.00,Weather View 32 v70,2013-08-18 18:09:00,
2013-08-18 14:15:00,91.8,75.9,30.01,SE,124,5.0,13.0,60,0.00,,,0.00,Weather View 32 v70,2013-08-18 18:15:00,
2013-08-18 14:20:00,91.9,76.0,30.02,ESE,114,2.0,13.0,60,0.00,,,0.00,Weather View 32 v70,2013-08-18 18:20:00,
2013-08-18 14:25:00,91.6,75.7,30.02,ESE,118,7.0,11.0,60,0.00,,,0.00,Weather View 32 v70,2013-08-18 18:25:00,
2013-08-18 14:30:00,89.9,76.5,30.02,ESE,102,5.0,13.0,65,0.00,,,0.00,Weather View 32 v70,2013-08-18 18:30:00,
2013-08-18 14:35:00,87.9,77.3,30.02,ESE,117,5.0,13.0,71,0.00,,,0.00,Weather View 32 v70,2013-08-18 18:35:00,
2013-08-18 14:40:00,86.5,77.2,30.02,East,91,3.0,13.0,74,0.00,,,0.00,Weather View 32 v70,2013-08-18 18:40:00,
2013-08-18 14:45:00,85.7,76.8,30.02,SE,130,0.0,13.0,75,0.00,,,0.00,Weather View 32 v70,2013-08-18 18:45:00,
2013-08-18 14:50:00,85.7,77.2,30.02,SSW,206,0.0,13.0,76,0.00,,,0.00,Weather View 32 v70,2013-08-18 18:50:00,
2013-08-18 14:55:00,85.6,77.5,30.02,South,186,0.0,13.0,77,0.00,,,0.00,Weather View 32 v70,2013-08-18 18:55:00,
2013-08-18 15:00:00,85.2,77.5,30.02,SSW,208,2.0,13.0,78,0.00,,,0.00,Weather View 32 v70,2013-08-18 19:00:00,
2013-08-18 15:05:00,85.0,78.9,30.02,SSW,207,0.0,13.0,82,0.00,,,0.00,Weather View 32 v70,2013-08-18 19:05:00,
2013-08-18 15:10:00,85.2,78.7,30.01,SSW,209,5.0,13.0,81,0.00,,,0.00,Weather View 32 v70,2013-08-18 19:10:00,
2013-08-18 15:15:00,85.9,78.6,30.01,SSW,210,0.0,13.0,79,0.00,,,0.00,Weather View 32 v70,2013-08-18 19:15:00,
2013-08-18 15:20:00,87.0,77.7,30.01,WSW,246,3.0,13.0,74,0.00,,,0.00,Weather View 32 v70,2013-08-18 19:20:00,
2013-08-18 15:25:00,87.7,77.5,30.00,WSW,252,0.0,13.0,72,0.00,,,0.00,Weather View 32 v70,2013-08-18 19:25:00,
2013-08-18 15:30:00,87.9,76.8,30.00,WSW,254,3.0,13.0,70,0.00,,,0.00,Weather View 32 v70,2013-08-18 19:30:00,
2013-08-18 15:35:00,87.4,76.4,30.00,WSW,253,4.0,11.0,70,0.00,,,0.00,Weather View 32 v70,2013-08-18 19:35:00,
2013-08-18 15:40:00,87.7,77.1,30.00,WSW,249,0.0,11.0,71,0.00,,,0.00,Weather View 32 v70,2013-08-18 19:40:00,
2013-08-18 15:45:00,87.4,77.2,30.00,South,188,5.0,9.0,72,0.00,,,0.00,Weather View 32 v70,2013-08-18 19:45:00,
2013-08-18 15:50:00,86.3,77.0,30.00,SSW,192,1.0,9.0,74,0.00,,,0.00,Weather View 32 v70,2013-08-18 19:50:00,
2013-08-18 15:55:00,84.7,76.7,30.00,SW,234,4.0,9.0,77,0.00,,,0.00,Weather View 32 v70,2013-08-18 19:55:00,
2013-08-18 16:00:00,83.6,76.4,30.00,West,265,8.0,9.0,79,0.00,,,0.00,Weather View 32 v70,2013-08-18 20:00:00,
2013-08-18 16:05:00,83.4,76.5,29.99,WSW,244,3.0,9.0,80,0.00,,,0.00,Weather View 32 v70,2013-08-18 20:05:00,
2013-08-18 16:10:00,83.5,76.3,29.99,WSW,248,1.0,9.0,79,0.00,,,0.00,Weather View 32 v70,2013-08-18 20:10:00,
2013-08-18 16:15:00,84.2,76.6,29.99,WSW,250,3.0,9.0,78,0.00,,,0.00,Weather View 32 v70,2013-08-18 20:15:00,
2013-08-18 16:20:00,85.0,76.5,29.98,WSW,240,2.0,9.0,76,0.00,,,0.00,Weather View 32 v70,2013-08-18 20:20:00,
2013-08-18 16:25:00,86.3,76.2,29.98,SSW,196,3.0,9.0,72,0.00,,,0.00,Weather View 32 v70,2013-08-18 20:25:00,
2013-08-18 16:30:00,87.2,77.4,29.99,SW,217,3.0,9.0,73,0.00,,,0.00,Weather View 32 v70,2013-08-18 20:30:00,
2013-08-18 16:35:00,87.5,77.3,29.98,SW,221,0.0,9.0,72,0.00,,,0.00,Weather View 32 v70,2013-08-18 20:35:00,
2013-08-18 16:40:00,87.6,77.8,29.99,SW,234,0.0,9.0,73,0.00,,,0.00,Weather View 32 v70,2013-08-18 20:40:00,
2013-08-18 16:46:00,87.9,77.3,29.98,SSW,196,0.0,9.0,71,0.00,,,0.00,Weather View 32 v70,2013-08-18 20:46:00,
2013-08-18 16:51:00,88.2,77.6,29.98,SSW,198,0.0,9.0,71,0.00,,,0.00,Weather View 32 v70,2013-08-18 20:51:00,
2013-08-18 16:56:00,88.4,77.7,29.98,SW,225,2.0,9.0,71,0.00,,,0.00,Weather View 32 v70,2013-08-18 20:56:00,
2013-08-18 17:01:00,88.1,77.9,29.98,WSW,246,4.0,9.0,72,0.00,,,0.00,Weather View 32 v70,2013-08-18 21:01:00,
2013-08-18 17:06:00,88.0,77.8,29.98,SW,234,3.0,7.0,72,0.00,,,0.00,Weather View 32 v70,2013-08-18 21:06:00,
2013-08-18 17:11:00,87.7,77.9,29.97,WSW,242,3.0,7.0,73,0.00,,,0.00,Weather View 32 v70,2013-08-18 21:11:00,
2013-08-18 17:16:00,87.3,78.0,29.98,SW,236,5.0,7.0,74,0.00,,,0.00,Weather View 32 v70,2013-08-18 21:16:00,
2013-08-18 17:21:00,87.3,78.0,29.98,SW,227,3.0,7.0,74,0.00,,,0.00,Weather View 32 v70,2013-08-18 21:21:00,
2013-08-18 17:26:00,87.2,77.9,29.99,WSW,242,3.0,7.0,74,0.00,,,0.00,Weather View 32 v70,2013-08-18 21:26:00,
2013-08-18 17:30:00,87.2,77.9,29.99,WSW,249,3.0,8.0,74,0.00,,,0.00,Weather View 32 v70,2013-08-18 21:30:00,
2013-08-18 17:31:00,87.3,78.8,29.98,WSW,247,6.0,8.0,76,0.00,,,0.00,Weather View 32 v70,2013-08-18 21:31:00,
2013-08-18 17:36:00,87.3,78.4,29.98,WSW,246,0.0,8.0,75,0.00,,,0.00,Weather View 32 v70,2013-08-18 21:36:00,
2013-08-18 17:41:00,87.1,77.8,29.99,WSW,249,2.0,8.0,74,0.00,,,0.00,Weather View 32 v70,2013-08-18 21:41:00,
2013-08-18 17:46:00,86.6,77.7,29.99,WSW,242,0.0,8.0,75,0.00,,,0.00,Weather View 32 v70,2013-08-18 21:46:00,
2013-08-18 17:51:00,86.4,77.9,29.99,WSW,246,3.0,8.0,76,0.00,,,0.00,Weather View 32 v70,2013-08-18 21:51:00,
2013-08-18 17:56:00,86.0,77.9,30.00,WSW,249,0.0,8.0,77,0.00,,,0.00,Weather View 32 v70,2013-08-18 21:56:00,
2013-08-18 18:01:00,85.8,77.3,30.02,SE,126,7.0,15.0,76,0.00,,,0.00,Weather View 32 v70,2013-08-18 22:01:00,
2013-08-18 18:06:00,82.5,74.1,30.02,SSE,164,8.0,22.0,76,0.00,,,0.00,Weather View 32 v70,2013-08-18 22:06:00,
2013-08-18 18:11:00,79.3,74.0,30.01,SE,134,14.0,22.0,84,0.02,,,0.02,Weather View 32 v70,2013-08-18 22:11:00,
2013-08-18 18:16:00,77.1,73.6,30.01,East,82,8.0,22.0,89,0.04,,,0.04,Weather View 32 v70,2013-08-18 22:16:00,
2013-08-18 18:21:00,76.4,73.9,30.01,ESE,102,2.0,22.0,92,0.06,,,0.07,Weather View 32 v70,2013-08-18 22:21:00,
2013-08-18 18:26:00,76.4,74.2,30.00,East,86,5.0,22.0,93,0.17,,,0.18,Weather View 32 v70,2013-08-18 22:26:00,
2013-08-18 18:30:00,76.4,74.2,30.00,SE,125,7.0,22.0,93,0.20,,,0.20,Weather View 32 v70,2013-08-18 22:30:00,
2013-08-18 18:31:00,76.4,74.2,30.02,SE,129,6.0,22.0,93,0.26,,,0.28,Weather View 32 v70,2013-08-18 22:31:00,
2013-08-18 18:36:00,75.4,73.2,30.02,SE,140,5.0,22.0,93,0.38,,,0.39,Weather View 32 v70,2013-08-18 22:36:00,
2013-08-18 18:41:00,74.9,72.7,30.02,SE,132,0.0,22.0,93,0.43,,,0.44,Weather View 32 v70,2013-08-18 22:41:00,
2013-08-18 18:46:00,74.8,72.9,30.03,SE,134,0.0,22.0,94,0.48,,,0.48,Weather View 32 v70,2013-08-18 22:46:00,
2013-08-18 18:51:00,75.0,73.1,30.03,SSW,201,5.0,22.0,94,0.50,,,0.51,Weather View 32 v70,2013-08-18 22:51:00,
2013-08-18 18:56:00,75.1,73.2,30.02,SSW,211,0.0,22.0,94,0.52,,,0.52,Weather View 32 v70,2013-08-18 22:56:00,
2013-08-18 19:01:00,74.8,72.9,30.02,SSW,213,1.0,22.0,94,0.54,,,0.54,Weather View 32 v70,2013-08-18 23:01:00,
2013-08-18 19:06:00,74.4,72.6,30.02,SW,217,1.0,22.0,94,0.55,,,0.55,Weather View 32 v70,2013-08-18 23:06:00,
2013-08-18 19:11:00,74.0,72.2,30.02,SW,214,4.0,22.0,94,0.53,,,0.55,Weather View 32 v70,2013-08-18 23:11:00,
2013-08-18 19:16:00,74.0,72.2,30.03,SW,232,0.0,15.0,94,0.50,,,0.55,Weather View 32 v70,2013-08-18 23:16:00,
2013-08-18 19:21:00,73.9,72.1,30.04,SW,232,0.0,14.0,94,0.47,,,0.55,Weather View 32 v70,2013-08-18 23:21:00,
2013-08-18 19:26:00,74.0,72.2,30.04,SW,233,0.0,14.0,94,0.37,,,0.55,Weather View 32 v70,2013-08-18 23:26:00,
2013-08-18 19:31:00,74.2,72.4,30.04,SW,233,0.0,14.0,94,0.25,,,0.55,Weather View 32 v70,2013-08-18 23:31:00,
2013-08-18 19:36:00,74.4,72.9,30.04,SW,234,0.0,9.0,95,0.15,,,0.55,Weather View 32 v70,2013-08-18 23:36:00,
2013-08-18 19:41:00,74.5,73.0,30.03,WSW,239,0.0,9.0,95,0.11,,,0.55,Weather View 32 v70,2013-08-18 23:41:00,
2013-08-18 19:47:00,74.5,73.0,30.03,WSW,246,0.0,9.0,95,0.07,,,0.55,Weather View 32 v70,2013-08-18 23:47:00,
2013-08-18 19:52:00,74.5,73.0,30.04,WSW,246,0.0,9.0,95,0.04,,,0.55,Weather View 32 v70,2013-08-18 23:52:00,
2013-08-18 19:57:00,74.5,73.0,30.04,WSW,246,0.0,7.0,95,0.03,,,0.55,Weather View 32 v70,2013-08-18 23:57:00,
2013-08-18 20:02:00,74.6,73.1,30.04,WSW,246,0.0,7.0,95,0.01,,,0.55,Weather View 32 v70,2013-08-19 00:02:00,
2013-08-18 20:07:00,74.6,73.1,30.04,WSW,246,0.0,7.0,95,0.00,,,0.55,Weather View 32 v70,2013-08-19 00:07:00,
2013-08-18 20:12:00,74.5,73.0,30.04,WSW,245,0.0,5.0,95,0.00,,,0.55,Weather View 32 v70,2013-08-19 00:12:00,
2013-08-18 20:17:00,74.4,72.9,30.03,WSW,245,0.0,3.0,95,0.00,,,0.55,Weather View 32 v70,2013-08-19 00:17:00,
2013-08-18 20:22:00,74.5,73.0,30.03,WSW,245,0.0,3.0,95,0.00,,,0.55,Weather View 32 v70,2013-08-19 00:22:00,
2013-08-18 20:27:00,74.6,73.1,30.03,WSW,246,0.0,3.0,95,0.00,,,0.55,Weather View 32 v70,2013-08-19 00:27:00,
2013-08-18 20:32:00,74.7,73.2,30.03,WSW,246,0.0,3.0,95,0.00,,,0.55,Weather View 32 v70,2013-08-19 00:32:00,
2013-08-18 20:37:00,74.7,73.2,30.03,WSW,246,1.0,3.0,95,0.01,,,0.56,Weather View 32 v70,2013-08-19 00:37:00,
2013-08-18 20:42:00,74.7,73.2,30.03,WSW,246,0.0,3.0,95,0.01,,,0.56,Weather View 32 v70,2013-08-19 00:42:00,
2013-08-18 20:47:00,74.8,73.3,30.03,WSW,246,0.0,3.0,95,0.01,,,0.56,Weather View 32 v70,2013-08-19 00:47:00,
2013-08-18 20:52:00,74.8,73.3,30.03,WSW,246,0.0,3.0,95,0.01,,,0.56,Weather View 32 v70,2013-08-19 00:52:00,
2013-08-18 20:57:00,74.9,73.4,30.04,WSW,246,0.0,3.0,95,0.01,,,0.56,Weather View 32 v70,2013-08-19 00:57:00,
2013-08-18 21:03:00,74.9,73.4,30.03,WSW,246,0.0,3.0,95,0.01,,,0.56,Weather View 32 v70,2013-08-19 01:03:00,
2013-08-18 21:08:00,75.0,73.5,30.03,WSW,246,0.0,3.0,95,0.01,,,0.56,Weather View 32 v70,2013-08-19 01:08:00,
2013-08-18 21:13:00,75.1,73.6,30.03,WSW,246,0.0,3.0,95,0.01,,,0.56,Weather View 32 v70,2013-08-19 01:13:00,
2013-08-18 21:18:00,75.2,73.7,30.04,WSW,246,0.0,3.0,95,0.01,,,0.56,Weather View 32 v70,2013-08-19 01:18:00,
2013-08-18 21:23:00,75.2,73.7,30.05,WSW,246,0.0,3.0,95,0.01,,,0.56,Weather View 32 v70,2013-08-19 01:23:00,
2013-08-18 21:28:00,75.4,73.9,30.05,WSW,246,0.0,3.0,95,0.01,,,0.56,Weather View 32 v70,2013-08-19 01:28:00,
2013-08-18 21:33:00,75.5,74.0,30.06,WSW,246,0.0,3.0,95,0.01,,,0.56,Weather View 32 v70,2013-08-19 01:33:00,
2013-08-18 21:38:00,75.5,74.0,30.06,WSW,245,0.0,2.0,95,0.00,,,0.56,Weather View 32 v70,2013-08-19 01:38:00,
2013-08-18 21:43:00,75.6,74.1,30.08,WSW,245,0.0,1.0,95,0.00,,,0.56,Weather View 32 v70,2013-08-19 01:43:00,
2013-08-18 21:48:00,75.9,74.4,30.09,SE,133,4.0,5.0,95,0.00,,,0.56,Weather View 32 v70,2013-08-19 01:48:00,
2013-08-18 21:53:00,75.7,74.2,30.09,SE,127,5.0,8.0,95,0.00,,,0.56,Weather View 32 v70,2013-08-19 01:53:00,
2013-08-18 21:58:00,75.1,73.6,30.09,SSW,198,0.0,9.0,95,0.00,,,0.56,Weather View 32 v70,2013-08-19 01:58:00,
2013-08-18 22:03:00,74.7,73.2,30.10,SE,134,2.0,9.0,95,0.00,,,0.56,Weather View 32 v70,2013-08-19 02:03:00,
2013-08-18 22:08:00,74.4,72.9,30.10,SE,138,0.0,9.0,95,0.00,,,0.56,Weather View 32 v70,2013-08-19 02:08:00,
2013-08-18 22:13:00,74.2,72.7,30.10,SSW,207,0.0,9.0,95,0.00,,,0.56,Weather View 32 v70,2013-08-19 02:13:00,
2013-08-18 22:18:00,74.2,72.7,30.10,SSW,195,0.0,9.0,95,0.00,,,0.56,Weather View 32 v70,2013-08-19 02:18:00,
2013-08-18 22:23:00,74.1,72.6,30.09,SSE,155,0.0,9.0,95,0.00,,,0.56,Weather View 32 v70,2013-08-19 02:23:00,
2013-08-18 22:28:00,74.1,72.6,30.09,SSE,155,0.0,9.0,95,0.00,,,0.56,Weather View 32 v70,2013-08-19 02:28:00,
2013-08-18 22:33:00,74.0,72.5,30.08,SSE,155,0.0,9.0,95,0.00,,,0.56,Weather View 32 v70,2013-08-19 02:33:00,
2013-08-18 22:38:00,73.9,72.4,30.07,SE,145,3.0,9.0,95,0.00,,,0.56,Weather View 32 v70,2013-08-19 02:38:00,
2013-08-18 22:43:00,73.9,72.1,30.06,SE,145,0.0,9.0,94,0.00,,,0.56,Weather View 32 v70,2013-08-19 02:43:00,
2013-08-18 22:48:00,74.0,72.2,30.07,SE,145,0.0,9.0,94,0.00,,,0.56,Weather View 32 v70,2013-08-19 02:48:00,
2013-08-18 22:53:00,74.0,72.2,30.07,SE,145,0.0,9.0,94,0.01,,,0.57,Weather View 32 v70,2013-08-19 02:53:00,
2013-08-18 22:58:00,74.0,72.2,30.07,SE,145,0.0,8.0,94,0.01,,,0.57,Weather View 32 v70,2013-08-19 02:58:00,
2013-08-18 23:03:00,73.9,72.1,30.06,SE,145,0.0,8.0,94,0.02,,,0.58,Weather View 32 v70,2013-08-19 03:03:00,
2013-08-18 23:08:00,73.9,72.1,30.06,SE,145,0.0,8.0,94,0.03,,,0.60,Weather View 32 v70,2013-08-19 03:08:00,
2013-08-18 23:13:00,74.0,72.2,30.06,SE,145,0.0,8.0,94,0.05,,,0.61,Weather View 32 v70,2013-08-19 03:13:00,
2013-08-18 23:18:00,73.8,72.0,30.05,SE,145,0.0,5.0,94,0.05,,,0.61,Weather View 32 v70,2013-08-19 03:18:00,
2013-08-18 23:23:00,73.7,71.9,30.05,SE,145,0.0,5.0,94,0.05,,,0.61,Weather View 32 v70,2013-08-19 03:23:00,
2013-08-18 23:28:00,73.5,71.7,30.05,SE,145,0.0,5.0,94,0.05,,,0.61,Weather View 32 v70,2013-08-19 03:28:00,
2013-08-18 23:33:00,73.5,72.0,30.04,SE,145,0.0,5.0,95,0.06,,,0.62,Weather View 32 v70,2013-08-19 03:33:00,
2013-08-18 23:38:00,73.6,72.1,30.04,SE,145,0.0,4.0,95,0.06,,,0.62,Weather View 32 v70,2013-08-19 03:38:00,
2013-08-18 23:43:00,73.6,72.1,30.05,SE,145,0.0,1.0,95,0.06,,,0.62,Weather View 32 v70,2013-08-19 03:43:00,
2013-08-18 23:48:00,73.7,72.2,30.05,SE,145,0.0,1.0,95,0.06,,,0.62,Weather View 32 v70,2013-08-19 03:48:00,
2013-08-18 23:53:00,73.6,72.1,30.04,SE,145,0.0,1.0,95,0.05,,,0.62,Weather View 32 v70,2013-08-19 03:53:00,
2013-08-18 23:58:00,73.7,72.2,30.04,SE,145,0.0,1.0,95,0.05,,,0.62,Weather View 32 v70,2013-08-19 03:58:00,